Time;durP1;ratioP1;P1;durP2;ratioP2;P2;SDS_P1;SDS_P2;PMS_P1;PMS_P2;Temp;Humidity;BMP_temperature;BMP_pressure;BME280_temperature;BME280_humidity;BME280_pressure;Samples;Min_cycle;Max_cycle;Signal;HPM_P1;HPM_P2
2022/05/18 00:00:15;;;;;;;4.90;3.08;;;;;;;18.21;65.55;94550.34;4175753;28;20057;-54
2022/05/18 00:02:16;;;;;;;4.68;3.30;;;;;;;18.19;65.35;94536.50;4175399;28;20056;-55
2022/05/18 00:04:18;;;;;;;4.35;3.30;;;;;;;18.15;65.43;94537.94;4175217;28;20065;-55
2022/05/18 00:06:20;;;;;;;5.35;3.53;;;;;;;18.11;65.10;94536.72;4175764;28;20060;-56
2022/05/18 00:08:22;;;;;;;4.57;3.20;;;;;;;18.01;65.15;94531.88;4173951;28;20053;-57
2022/05/18 00:10:23;;;;;;;4.72;3.70;;;;;;;17.97;65.48;94533.31;4175820;28;20060;-55
2022/05/18 00:12:26;;;;;;;3.50;3.03;;;;;;;17.90;65.46;94530.69;4175325;28;20186;-56
2022/05/18 00:14:28;;;;;;;6.47;3.08;;;;;;;17.91;65.96;94527.00;4175882;28;20494;-57
2022/05/18 00:16:29;;;;;;;5.38;3.25;;;;;;;17.83;65.55;94529.88;4175393;28;20511;-57
2022/05/18 00:18:31;;;;;;;3.83;3.13;;;;;;;17.77;65.83;94536.00;4175118;28;20053;-55
2022/05/18 00:20:33;;;;;;;5.63;3.60;;;;;;;17.79;65.87;94533.97;4157567;28;20517;-59
2022/05/18 00:22:43;;;;;;;7.18;4.10;;;;;;;17.82;65.31;94538.84;4163027;28;20136;-55
2022/05/18 00:24:45;;;;;;;4.10;3.15;;;;;;;17.87;65.61;94533.75;4164400;28;20102;-55
2022/05/18 00:26:47;;;;;;;6.72;3.40;;;;;;;17.85;65.11;94533.13;4175725;28;20182;-58
2022/05/18 00:28:48;;;;;;;5.35;3.30;;;;;;;17.90;65.21;94533.34;4175648;28;20133;-56
2022/05/18 00:30:51;;;;;;;4.75;3.10;;;;;;;17.97;65.20;94528.81;4159452;28;20058;-54
2022/05/18 00:32:53;;;;;;;4.65;3.55;;;;;;;17.97;65.21;94539.44;4166519;28;20126;-53
2022/05/18 00:34:55;;;;;;;4.88;3.60;;;;;;;18.01;64.86;94535.34;4175530;28;20057;-53
2022/05/18 00:36:56;;;;;;;4.95;3.72;;;;;;;17.95;64.91;94536.16;4175664;28;20119;-55
2022/05/18 00:38:58;;;;;;;4.05;3.50;;;;;;;17.85;65.45;94540.28;4174220;28;20114;-56
2022/05/18 00:41:00;;;;;;;4.78;3.88;;;;;;;17.78;65.58;94541.06;4175589;28;20060;-55
2022/05/18 00:43:01;;;;;;;4.60;3.55;;;;;;;17.76;65.41;94553.72;4171050;28;20049;-54
2022/05/18 00:45:04;;;;;;;5.97;3.40;;;;;;;17.78;65.49;94545.56;4157898;28;20128;-57
2022/05/18 00:47:06;;;;;;;4.82;3.75;;;;;;;17.80;65.46;94551.47;4160820;28;20654;-51
2022/05/18 00:49:28;;;;;;;5.97;3.80;;;;;;;17.79;65.49;94547.22;4161770;28;20125;-51
2022/05/18 00:51:39;;;;;;;5.28;3.70;;;;;;;17.80;65.57;94548.81;4162311;28;20057;-54
2022/05/18 00:54:19;;;;;;;4.82;3.83;;;;;;;17.73;65.42;94550.69;4162178;28;20069;-53
2022/05/18 00:56:25;;;;;;;4.10;3.70;;;;;;;17.68;66.02;94553.94;4161380;28;20111;-54
2022/05/18 00:58:33;;;;;;;5.43;4.13;;;;;;;17.65;65.63;94549.03;4169731;28;20053;-51
2022/05/18 01:00:36;;;;;;;3.92;3.45;;;;;;;17.65;65.71;94548.25;4178553;28;20090;-54
2022/05/18 01:02:40;;;;;;;5.25;3.97;;;;;;;17.64;65.33;94550.09;4178918;28;20091;-56
2022/05/18 01:04:43;;;;;;;5.32;4.07;;;;;;;17.62;65.62;94554.78;4176788;28;20057;-54
2022/05/18 01:06:50;;;;;;;6.22;3.78;;;;;;;17.55;65.77;94552.13;4178624;28;20052;-53
2022/05/18 01:09:06;;;;;;;7.75;3.80;;;;;;;17.52;65.70;94547.22;4176743;28;20521;-55
2022/05/18 01:11:08;;;;;;;5.32;3.90;;;;;;;17.53;66.05;94543.56;4178683;28;20053;-57
2022/05/18 01:13:12;;;;;;;3.80;3.40;;;;;;;17.53;66.02;94546.22;4178411;28;20651;-54
2022/05/18 01:15:18;;;;;;;7.55;4.30;;;;;;;17.53;65.88;94551.53;4178082;28;20096;-56
2022/05/18 01:17:23;;;;;;;5.90;3.88;;;;;;;17.53;65.70;94543.56;4178620;28;20064;-57
2022/05/18 01:19:35;;;;;;;5.10;4.07;;;;;;;17.45;65.80;94546.44;4176706;28;20460;-57
2022/05/18 01:21:43;;;;;;;4.65;3.88;;;;;;;17.35;66.10;94543.38;4173985;28;20049;-58
2022/05/18 01:24:06;;;;;;;4.32;3.78;;;;;;;17.31;66.08;94539.50;4158781;28;20088;-56
2022/05/18 01:26:45;;;;;;;4.53;3.80;;;;;;;17.26;66.40;94534.03;4160573;28;20061;-56
2022/05/18 01:28:52;;;;;;;6.15;4.25;;;;;;;17.26;66.54;94536.66;4161732;28;20119;-56
2022/05/18 01:30:54;;;;;;;5.07;3.95;;;;;;;17.20;66.61;94527.69;4160345;28;20595;-56
2022/05/18 01:32:57;;;;;;;5.15;3.88;;;;;;;17.15;66.62;94530.97;4160096;28;20103;-56
2022/05/18 01:34:59;;;;;;;;;;;;;;;17.15;67.07;94525.66;4178793;28;20160;-53
2022/05/18 01:37:02;;;;;;;3.97;3.58;;;;;;;17.12;66.74;94522.59;4178338;28;20902;-57
2022/05/18 01:39:06;;;;;;;4.32;3.38;;;;;;;17.08;66.94;94522.22;4176528;28;20535;-54
2022/05/18 01:41:20;;;;;;;5.50;4.30;;;;;;;17.13;66.76;94517.13;4176660;28;20056;-55
2022/05/18 01:43:33;;;;;;;;;;;;;;;17.18;66.63;94514.66;4177056;28;20049;-55
2022/05/18 01:45:35;;;;;;;6.60;3.83;;;;;;;17.15;66.82;94509.78;4163641;28;20031;-58
2022/05/18 01:47:38;;;;;;;6.75;3.70;;;;;;;17.19;66.66;94502.25;4177934;28;20049;-54
2022/05/18 01:49:40;;;;;;;4.85;4.25;;;;;;;17.24;66.24;94510.38;4164025;28;20049;-59
2022/05/18 01:51:47;;;;;;;5.18;3.60;;;;;;;17.30;66.19;94511.41;4178087;28;20101;-55
2022/05/18 01:53:49;;;;;;;5.18;3.70;;;;;;;17.33;65.79;94508.34;4176181;28;20053;-58
2022/05/18 01:55:50;;;;;;;4.03;3.63;;;;;;;17.32;65.70;94501.44;4177910;28;20056;-56
2022/05/18 01:57:52;;;;;;;5.75;4.10;;;;;;;17.30;65.56;94501.63;4177556;28;20052;-54
2022/05/18 01:59:54;;;;;;;3.85;3.42;;;;;;;17.36;64.99;94503.47;4177951;28;20049;-64
2022/05/18 02:01:55;;;;;;;4.30;3.63;;;;;;;17.18;65.05;94501.41;4177538;28;20057;-57
2022/05/18 02:03:57;;;;;;;3.60;3.20;;;;;;;17.18;65.06;94505.91;4177120;28;20088;-54
2022/05/18 02:05:59;;;;;;;3.72;3.28;;;;;;;17.13;65.03;94498.59;4177835;28;20048;-54
2022/05/18 02:08:01;;;;;;;4.65;3.15;;;;;;;17.15;65.06;94507.13;4176254;28;20461;-55
2022/05/18 02:10:04;;;;;;;3.83;3.00;;;;;;;17.13;65.03;94497.78;4177707;28;20053;-55
2022/05/18 02:12:07;;;;;;;4.55;2.85;;;;;;;17.08;64.88;94508.97;4177378;28;20114;-56
2022/05/18 02:14:09;;;;;;;4.57;3.42;;;;;;;17.04;64.75;94509.59;4176937;28;20103;-54
2022/05/18 02:16:12;;;;;;;3.25;2.67;;;;;;;17.02;64.78;94493.09;4177448;28;20119;-56
2022/05/18 02:18:13;;;;;;;3.03;2.72;;;;;;;17.03;64.79;94505.31;4176939;28;20084;-57
2022/05/18 02:20:16;;;;;;;5.55;3.00;;;;;;;17.01;64.77;94494.09;4177216;28;20556;-58
2022/05/18 02:22:18;;;;;;;4.82;2.92;;;;;;;16.96;64.69;94498.19;4167157;28;20095;-55
2022/05/18 02:24:20;;;;;;;5.78;2.80;;;;;;;16.88;64.97;94508.94;4158993;28;20045;-56
2022/05/18 02:26:21;;;;;;;7.10;3.28;;;;;;;16.88;64.57;94498.38;4160567;28;20215;-55
2022/05/18 02:28:23;;;;;;;5.20;2.60;;;;;;;16.90;64.62;94500.81;4160683;28;20644;-54
2022/05/18 02:30:25;;;;;;;3.20;2.63;;;;;;;16.92;65.08;94496.16;4160873;28;20060;-56
2022/05/18 02:32:26;;;;;;;9.00;2.80;;;;;;;16.59;66.18;94496.91;4167170;28;20110;-56
2022/05/18 02:34:28;;;;;;;2.70;2.33;;;;;;;16.64;65.67;94491.81;4176972;28;20045;-59
2022/05/18 02:36:30;;;;;;;3.40;2.60;;;;;;;16.70;65.57;94492.84;4177432;28;20118;-53
2022/05/18 02:38:32;;;;;;;6.50;2.63;;;;;;;16.81;64.96;94494.09;4175707;28;20114;-53
2022/05/18 02:40:34;;;;;;;3.85;2.72;;;;;;;16.85;64.75;94490.84;4177028;28;20480;-51
2022/05/18 02:42:36;;;;;;;3.38;2.50;;;;;;;16.85;64.76;94500.63;4177037;28;20057;-56
2022/05/18 02:44:38;;;;;;;4.10;2.30;;;;;;;16.83;64.46;94500.00;4177239;28;20057;-54
2022/05/18 02:46:39;;;;;;;3.42;2.60;;;;;;;16.89;64.43;94497.38;4166622;28;20115;-55
2022/05/18 02:48:42;;;;;;;4.60;3.10;;;;;;;16.99;64.13;94499.59;4166707;28;20064;-56
2022/05/18 02:50:47;;;;;;;2.92;2.38;;;;;;;16.98;64.13;94498.78;4160559;28;20071;-55
2022/05/18 02:52:49;;;;;;;4.93;3.03;;;;;;;17.04;64.22;94489.22;4160651;28;20095;-54
2022/05/18 02:57:10;;;;;;;3.47;2.80;;;;;;;17.09;63.78;94488.63;4176742;28;20057;-54
2022/05/18 02:59:12;;;;;;;3.88;3.05;;;;;;;17.14;63.88;94492.28;4176929;28;20045;-54
2022/05/18 03:01:16;;;;;;;6.35;2.90;;;;;;;17.16;63.82;94492.91;4176981;28;20174;-58
2022/05/18 03:03:18;;;;;;;5.35;3.30;;;;;;;17.16;64.14;94503.50;4176365;28;20053;-55
2022/05/18 03:05:37;;;;;;;3.60;2.90;;;;;;;17.20;63.93;94495.94;4176796;28;20324;-56
2022/05/18 03:07:39;;;;;;;4.18;3.20;;;;;;;17.20;64.26;94509.16;4176686;28;20423;-54
2022/05/18 03:09:41;;;;;;;5.95;3.00;;;;;;;17.21;64.00;94508.16;4174476;28;20053;-57
2022/05/18 03:11:44;;;;;;;4.50;3.45;;;;;;;17.22;64.08;94514.25;4176585;28;20163;-56
2022/05/18 03:13:45;;;;;;;5.78;3.55;;;;;;;17.18;63.67;94514.66;4176806;28;20053;-59
2022/05/18 03:15:47;;;;;;;4.85;4.00;;;;;;;17.25;63.82;94517.34;4176897;28;20049;-56
2022/05/18 03:17:49;;;;;;;7.68;3.65;;;;;;;17.22;64.14;94522.22;4176767;28;20132;-56
2022/05/18 03:19:51;;;;;;;6.63;4.30;;;;;;;17.23;64.39;94531.75;4176482;28;20052;-56
2022/05/18 03:24:13;;;;;;;6.25;3.88;;;;;;;17.34;64.34;94516.09;4158682;28;20449;-55
2022/05/18 03:26:18;;;;;;;6.30;4.55;;;;;;;17.39;63.91;94526.88;4160192;28;20083;-56
2022/05/18 03:28:19;;;;;;;7.07;4.35;;;;;;;17.46;63.83;94520.75;4160163;28;20422;-56
2022/05/18 03:30:21;;;;;;;6.07;4.10;;;;;;;17.39;64.06;94524.22;4160051;28;20096;-54
2022/05/18 03:32:23;;;;;;;5.03;4.35;;;;;;;17.42;64.13;94512.41;4165846;28;20053;-55
2022/05/18 03:34:24;;;;;;;5.18;4.45;;;;;;;17.46;64.15;94516.25;4176219;28;20056;-52
2022/05/18 03:36:27;;;;;;;6.05;4.28;;;;;;;17.48;64.03;94522.16;4176338;28;20106;-53
2022/05/18 03:38:28;;;;;;;8.35;4.45;;;;;;;17.53;63.73;94522.38;4174734;28;20110;-54
2022/05/18 03:40:30;;;;;;;9.55;5.18;;;;;;;17.62;63.56;94533.56;4176111;28;20047;-55
2022/05/18 03:42:32;;;;;;;6.75;4.30;;;;;;;17.51;63.97;94532.38;4176245;28;20049;-55
2022/05/18 03:44:33;;;;;;;6.40;4.40;;;;;;;17.54;64.13;94531.13;4176035;28;20553;-53
2022/05/18 03:46:36;;;;;;;5.70;4.60;;;;;;;17.52;64.16;94544.59;4172601;28;20503;-54
2022/05/18 03:48:38;;;;;;;6.53;5.13;;;;;;;17.58;64.15;94538.47;4160941;28;20470;-55
2022/05/18 03:50:43;;;;;;;6.15;4.95;;;;;;;17.54;64.47;94541.72;4159650;28;20071;-56
2022/05/18 03:52:44;;;;;;;10.82;5.72;;;;;;;17.51;64.30;94545.63;4159373;28;20078;-55
2022/05/18 03:54:46;;;;;;;9.70;4.90;;;;;;;17.59;64.45;94550.72;4161850;28;20099;-55
2022/05/18 03:56:47;;;;;;;6.95;4.60;;;;;;;17.64;64.15;94550.09;4173908;28;20053;-55
2022/05/18 03:58:49;;;;;;;9.00;4.63;;;;;;;17.65;63.97;94550.88;4175814;28;20467;-52
2022/05/18 04:00:54;;;;;;;6.80;4.70;;;;;;;17.65;64.09;94551.69;4176019;28;20079;-56
2022/05/18 04:02:55;;;;;;;5.82;4.70;;;;;;;17.69;63.83;94550.25;4175609;28;20375;-54
2022/05/18 04:04:57;;;;;;;5.72;4.70;;;;;;;17.73;63.64;94540.06;4175701;28;20062;-56
2022/05/18 04:06:59;;;;;;;5.50;3.90;;;;;;;17.77;63.88;94543.94;4169623;28;20048;-57
2022/05/18 04:09:00;;;;;;;4.63;4.05;;;;;;;17.71;63.89;94547.41;4166914;28;20053;-56
2022/05/18 04:11:03;;;;;;;5.30;4.55;;;;;;;17.81;63.52;94539.88;4175757;28;20106;-55
2022/05/18 04:13:07;;;;;;;6.57;4.00;;;;;;;17.86;63.56;94547.22;4175900;28;20417;-55
2022/05/18 04:15:10;;;;;;;6.47;4.85;;;;;;;17.84;63.64;94549.25;4176239;28;20386;-55
2022/05/18 04:17:12;;;;;;;6.22;4.38;;;;;;;17.91;63.41;94550.84;4176246;28;20682;-55
2022/05/18 04:19:20;;;;;;;5.15;4.22;;;;;;;17.89;63.88;94554.75;4175733;28;20060;-56
2022/05/18 04:21:21;;;;;;;8.23;4.95;;;;;;;17.91;64.30;94561.44;4178142;28;20409;-58
2022/05/18 04:23:24;;;;;;;5.95;4.53;;;;;;;17.85;63.97;94564.13;4177527;28;20072;-56
2022/05/18 04:25:28;;;;;;;5.65;4.38;;;;;;;17.82;64.11;94560.06;4179145;28;20051;-53
2022/05/18 04:27:31;;;;;;;10.40;4.55;;;;;;;17.82;64.53;94560.06;4179272;28;20310;-56
2022/05/18 04:29:33;;;;;;;7.93;4.97;;;;;;;17.85;64.29;94559.63;4179414;28;20049;-57
2022/05/18 04:31:39;;;;;;;7.07;4.10;;;;;;;17.82;64.54;94565.34;4179052;28;20278;-56
2022/05/18 04:33:40;;;;;;;5.65;4.05;;;;;;;17.81;64.82;94561.88;4178513;28;20098;-53
2022/05/18 04:35:42;;;;;;;5.18;4.22;;;;;;;17.83;64.73;94555.56;4179264;28;20133;-56
2022/05/18 04:37:44;;;;;;;4.95;4.43;;;;;;;17.78;65.24;94564.09;4179302;28;20061;-52
2022/05/18 04:39:45;;;;;;;7.30;5.07;;;;;;;17.82;65.45;94568.00;4177237;28;20049;-55
2022/05/18 04:41:47;;;;;;;6.15;4.85;;;;;;;17.78;65.40;94556.97;4179151;28;20201;-55
2022/05/18 04:43:49;;;;;;;7.05;5.57;;;;;;;17.80;65.52;94567.38;4179091;28;20111;-59
2022/05/18 04:45:51;;;;;;;7.20;5.22;;;;;;;17.71;65.10;94564.13;4178932;28;20053;-55
2022/05/18 04:47:53;;;;;;;9.43;6.43;;;;;;;17.73;65.91;94564.72;4176158;28;20045;-55
2022/05/18 04:49:57;;;;;;;8.00;5.75;;;;;;;17.73;65.66;94563.94;4161583;28;20045;-54
2022/05/18 04:51:59;;;;;;;;;;;;;;;17.85;65.67;94558.81;4165174;28;20107;-55
2022/05/18 04:54:01;;;;;;;6.97;5.97;;;;;;;17.88;65.82;94559.22;4160774;28;19936;-57
2022/05/18 04:56:04;;;;;;;7.45;5.75;;;;;;;17.83;65.78;94566.16;4162439;28;20103;-54
2022/05/18 04:58:06;;;;;;;6.83;5.60;;;;;;;17.76;65.87;94559.00;4162504;28;20595;-56
2022/05/18 05:00:14;;;;;;;9.32;5.93;;;;;;;17.77;66.08;94568.59;4162382;28;20537;-53
2022/05/18 05:02:17;;;;;;;7.00;6.15;;;;;;;17.78;65.87;94569.41;4162255;28;20049;-55
2022/05/18 05:04:18;;;;;;;7.80;6.00;;;;;;;17.80;66.11;94567.38;4161914;28;21107;-53
2022/05/18 05:06:20;;;;;;;7.32;6.30;;;;;;;17.80;66.16;94562.06;4162304;28;20513;-53
2022/05/18 05:08:22;;;;;;;7.47;6.15;;;;;;;17.75;66.28;94559.22;4159172;28;20057;-54
2022/05/18 05:10:24;;;;;;;9.02;6.75;;;;;;;17.70;65.89;94570.47;4162049;28;20096;-57
2022/05/18 05:12:26;;;;;;;7.72;6.70;;;;;;;17.71;66.22;94566.78;4162343;28;20057;-57
2022/05/18 05:14:27;;;;;;;9.13;6.63;;;;;;;17.71;66.26;94566.78;4162105;28;20050;-53
2022/05/18 05:16:29;;;;;;;8.60;7.18;;;;;;;17.70;66.49;94569.63;4162255;28;20375;-57
2022/05/18 05:18:32;;;;;;;10.55;7.28;;;;;;;17.72;66.86;94565.72;4161994;28;20054;-55
2022/05/18 05:20:33;;;;;;;12.15;7.63;;;;;;;17.77;66.40;94578.38;4162030;28;20050;-57
2022/05/18 05:22:35;;;;;;;10.05;7.38;;;;;;;17.83;66.36;94574.13;4161945;28;20049;-55
2022/05/18 05:24:37;;;;;;;7.93;6.47;;;;;;;17.80;66.36;94583.25;4160514;28;20560;-54
2022/05/18 05:26:40;;;;;;;10.52;7.90;;;;;;;17.74;66.72;94578.78;4162105;28;20111;-53
2022/05/18 05:28:42;;;;;;;9.65;7.80;;;;;;;17.73;66.98;94582.47;4162127;28;20061;-52
2022/05/18 05:30:44;;;;;;;8.30;7.15;;;;;;;17.79;66.67;94581.66;4161724;28;20481;-53
2022/05/18 05:32:46;;;;;;;9.13;7.47;;;;;;;17.68;67.05;94588.38;4170167;28;20107;-54
2022/05/18 05:34:47;;;;;;;8.68;6.95;;;;;;;17.77;67.11;94587.16;4177876;28;20049;-55
2022/05/18 05:36:49;;;;;;;9.00;7.68;;;;;;;17.80;67.21;94588.56;4178296;28;20144;-55
2022/05/18 05:38:51;;;;;;;8.88;7.47;;;;;;;17.81;67.19;94590.22;4176746;28;20122;-55
2022/05/18 05:40:54;;;;;;;9.65;7.07;;;;;;;17.74;66.80;94590.19;4178128;28;20140;-56
2022/05/18 05:42:55;;;;;;;9.40;6.57;;;;;;;17.70;67.35;94598.75;4178049;28;20284;-52
2022/05/18 05:44:57;;;;;;;7.57;6.60;;;;;;;17.61;67.83;94601.59;4178296;28;20355;-54
2022/05/18 05:47:03;;;;;;;8.55;5.85;;;;;;;17.57;68.43;94605.72;4178262;28;20057;-53
2022/05/18 05:49:05;;;;;;;12.45;7.60;;;;;;;17.55;68.88;94612.22;4165569;28;20152;-54
2022/05/18 05:51:13;;;;;;;8.07;6.78;;;;;;;17.57;68.86;94621.59;4164274;28;20395;-55
2022/05/18 05:53:15;;;;;;;9.20;7.63;;;;;;;17.48;69.33;94611.41;4159858;28;20057;-57
2022/05/18 05:55:17;;;;;;;10.32;7.80;;;;;;;17.48;69.67;94622.00;4161766;28;20558;-57
2022/05/18 05:57:19;;;;;;;8.48;7.00;;;;;;;17.50;69.59;94620.78;4161585;28;20049;-59
2022/05/18 05:59:21;;;;;;;8.70;6.95;;;;;;;17.41;70.02;94624.66;4161542;28;20115;-55
2022/05/18 06:01:23;;;;;;;8.18;6.97;;;;;;;17.38;70.23;94622.41;4161475;28;20440;-54
2022/05/18 06:03:26;;;;;;;9.77;7.28;;;;;;;17.39;70.55;94629.34;4160825;28;20512;-52
2022/05/18 06:05:28;;;;;;;9.98;8.00;;;;;;;17.37;70.57;94620.78;4161253;28;20080;-54
2022/05/18 06:07:31;;;;;;;10.02;7.38;;;;;;;17.35;70.89;94626.25;4161357;28;20057;-59
2022/05/18 06:09:33;;;;;;;9.40;7.35;;;;;;;17.33;71.04;94632.78;4159657;28;20061;-56
2022/05/18 06:11:36;;;;;;;11.13;8.48;;;;;;;17.30;71.73;94630.56;4161348;28;20057;-57
2022/05/18 06:13:38;;;;;;;9.55;7.07;;;;;;;17.20;71.77;94628.28;4161280;28;20485;-58
2022/05/18 06:15:41;;;;;;;9.65;7.45;;;;;;;17.14;72.44;94632.56;4161312;28;20053;-60
2022/05/18 06:17:42;;;;;;;7.72;6.72;;;;;;;17.04;72.41;94632.13;4161369;28;20062;-59
2022/05/18 06:19:44;;;;;;;11.23;5.95;;;;;;;16.98;72.77;94639.03;4160648;28;20098;-56
2022/05/18 06:21:47;;;;;;;8.57;5.93;;;;;;;16.92;73.06;94631.91;4161188;28;20076;-59
2022/05/18 06:23:48;;;;;;;9.82;6.55;;;;;;;16.96;73.39;94640.25;4159679;28;20049;-59
2022/05/18 06:25:51;;;;;;;8.40;5.40;;;;;;;16.92;73.07;94639.84;4161203;28;20053;-52
2022/05/18 06:27:52;;;;;;;9.35;5.32;;;;;;;16.87;73.20;94649.41;4161265;28;20062;-56
2022/05/18 06:29:54;;;;;;;10.32;5.90;;;;;;;16.87;73.78;94642.28;4160967;28;20107;-56
2022/05/18 06:31:56;;;;;;;10.00;6.10;;;;;;;16.91;73.73;94653.28;4162948;28;20111;-56
2022/05/18 06:33:58;;;;;;;10.00;5.75;;;;;;;16.97;73.84;94652.47;4176893;28;20049;-59
2022/05/18 06:36:00;;;;;;;8.38;5.68;;;;;;;16.95;73.50;94644.75;4177452;28;20114;-55
2022/05/18 06:38:12;;;;;;;6.93;5.68;;;;;;;17.06;73.30;94646.00;4176139;28;20057;-57
2022/05/18 06:40:13;;;;;;;6.93;5.43;;;;;;;17.15;72.76;94647.44;4177199;28;20053;-58
2022/05/18 06:42:15;;;;;;;6.13;5.32;;;;;;;17.14;72.74;94647.63;4177545;28;20060;-58
2022/05/18 06:44:18;;;;;;;7.88;5.25;;;;;;;17.16;72.25;94646.44;4176226;28;20083;-58
2022/05/18 06:46:20;;;;;;;7.32;5.55;;;;;;;17.19;72.44;94651.31;4177408;28;20076;-52
2022/05/18 06:48:22;;;;;;;8.52;5.32;;;;;;;17.22;71.55;94649.28;4171306;28;20136;-57
2022/05/18 06:50:44;;;;;;;7.30;5.07;;;;;;;17.26;71.67;94655.81;4163916;28;20121;-58
2022/05/18 06:52:45;;;;;;;7.30;5.13;;;;;;;17.27;71.91;94654.78;4160809;28;20061;-59
2022/05/18 06:54:47;;;;;;;7.55;5.65;;;;;;;17.29;71.62;94655.38;4158761;28;20053;-55
2022/05/18 06:56:54;;;;;;;6.70;5.40;;;;;;;17.27;70.96;94655.59;4160588;28;20095;-56
2022/05/18 06:58:56;;;;;;;7.35;5.35;;;;;;;17.28;71.50;94664.34;4164668;28;20057;-56
2022/05/18 07:01:01;;;;;;;7.90;5.65;;;;;;;17.31;70.94;94661.28;4177219;28;20056;-56
2022/05/18 07:03:03;;;;;;;8.32;5.65;;;;;;;17.36;71.40;94664.16;4176282;28;20049;-53
2022/05/18 07:05:05;;;;;;;8.85;6.07;;;;;;;17.39;71.14;94661.09;4176907;28;20525;-56
2022/05/18 07:07:07;;;;;;;6.70;6.00;;;;;;;17.40;71.12;94662.72;4176844;28;20110;-55
2022/05/18 07:09:15;;;;;;;6.93;5.82;;;;;;;17.47;71.06;94662.75;4175577;28;20053;-57
2022/05/18 07:11:18;;;;;;;7.95;5.82;;;;;;;17.56;71.07;94657.03;4176972;28;20088;-58
2022/05/18 07:13:20;;;;;;;8.03;6.07;;;;;;;17.68;70.59;94656.44;4176959;28;20053;-60
2022/05/18 07:15:21;;;;;;;8.10;6.03;;;;;;;17.72;70.26;94655.00;4177232;28;20052;-57
2022/05/18 07:17:23;;;;;;;8.20;6.00;;;;;;;17.78;69.79;94670.09;4176696;28;20057;-59
2022/05/18 07:19:45;;;;;;;7.35;6.00;;;;;;;17.77;69.47;94673.78;4176682;28;20143;-58
2022/05/18 07:21:50;;;;;;;7.47;6.22;;;;;;;17.83;69.97;94675.63;4170960;28;20194;-55
2022/05/18 07:23:53;;;;;;;7.05;5.63;;;;;;;17.82;69.48;94676.66;4158876;28;20057;-59
2022/05/18 07:25:56;;;;;;;8.60;6.23;;;;;;;17.80;69.45;94674.16;4160518;28;20457;-58
2022/05/18 07:27:58;;;;;;;9.90;6.25;;;;;;;17.70;69.94;94681.72;4160219;28;20283;-56
2022/05/18 07:30:19;;;;;;;6.57;5.68;;;;;;;17.63;69.34;94672.13;4160196;28;20049;-54
2022/05/18 07:32:22;;;;;;;8.23;6.30;;;;;;;17.76;69.92;94678.22;4165813;28;20611;-58
2022/05/18 07:34:23;;;;;;;8.40;6.07;;;;;;;17.87;69.73;94681.31;4161842;28;20077;-54
2022/05/18 07:36:25;;;;;;;7.28;5.57;;;;;;;17.92;69.49;94690.31;4160097;28;20419;-60
2022/05/18 07:38:29;;;;;;;8.35;6.78;;;;;;;17.95;69.06;94686.44;4158586;28;20600;-58
2022/05/18 07:40:40;;;;;;;7.80;6.00;;;;;;;18.05;69.27;94684.19;4160809;28;20261;-57
2022/05/18 07:42:42;;;;;;;8.73;6.88;;;;;;;18.08;69.11;94693.56;4176441;28;20425;-56
2022/05/18 07:44:44;;;;;;;7.95;6.25;;;;;;;18.09;68.49;94693.34;4176357;28;20401;-55
2022/05/18 07:46:46;;;;;;;6.63;5.82;;;;;;;18.10;68.59;94694.16;4176109;28;20083;-53
2022/05/18 07:48:48;;;;;;;9.15;6.63;;;;;;;18.04;68.47;94690.50;4167432;28;20474;-57
2022/05/18 07:50:49;;;;;;;9.20;6.35;;;;;;;18.17;68.25;94698.41;4161284;28;20037;-56
2022/05/18 07:52:52;;;;;;;8.23;6.90;;;;;;;18.21;68.38;94698.84;4163671;28;20109;-59
2022/05/18 07:54:55;;;;;;;7.63;6.47;;;;;;;18.26;67.74;94698.22;4158683;28;20363;-51
2022/05/18 07:56:57;;;;;;;8.53;6.70;;;;;;;18.24;67.69;94700.25;4160273;28;20053;-56
2022/05/18 07:58:58;;;;;;;8.77;6.00;;;;;;;18.39;67.60;94698.19;4159695;28;20053;-55
2022/05/18 08:01:01;;;;;;;9.45;6.68;;;;;;;18.55;66.97;94708.34;4159657;28;20418;-53
2022/05/18 08:03:03;;;;;;;8.60;6.40;;;;;;;18.61;66.39;94702.22;4159475;28;20152;-51
2022/05/18 08:05:05;;;;;;;8.55;6.38;;;;;;;18.63;66.22;94700.19;4159697;28;20061;-55
2022/05/18 08:07:09;;;;;;;7.03;6.05;;;;;;;18.62;65.62;94697.72;4159514;28;20053;-53
2022/05/18 08:09:11;;;;;;;7.68;6.45;;;;;;;18.70;65.71;94709.97;4158277;28;20045;-54
2022/05/18 08:15:53;;;;;;;7.82;6.75;;;;;;;18.77;65.27;94700.13;4159689;28;20061;-53
2022/05/18 08:17:55;;;;;;;9.43;6.85;;;;;;;18.77;65.03;94711.56;4159587;28;20053;-53
2022/05/18 08:19:57;;;;;;;9.60;7.03;;;;;;;18.84;65.49;94714.22;4159641;28;20057;-55
2022/05/18 08:21:58;;;;;;;10.13;7.07;;;;;;;18.88;65.42;94709.31;4159818;28;20481;-53
2022/05/18 08:24:00;;;;;;;10.48;6.55;;;;;;;18.81;65.29;94718.09;4158133;28;20076;-53
2022/05/18 08:26:03;;;;;;;7.60;6.25;;;;;;;18.78;64.93;94712.41;4159917;28;20057;-52
2022/05/18 08:28:06;;;;;;;7.38;6.50;;;;;;;18.72;65.45;94715.88;4159679;28;20176;-55
2022/05/18 08:30:09;;;;;;;7.75;6.05;;;;;;;18.69;65.41;94711.81;4159265;28;20472;-56
2022/05/18 08:32:11;;;;;;;13.15;6.03;;;;;;;18.81;65.45;94717.28;4163545;28;20106;-53
2022/05/18 08:34:13;;;;;;;10.10;5.45;;;;;;;18.82;64.11;94714.44;4175747;28;20053;-53
2022/05/18 08:36:16;;;;;;;7.32;5.80;;;;;;;18.78;64.03;94710.56;4176146;28;20107;-56
2022/05/18 08:38:19;;;;;;;13.88;6.05;;;;;;;18.80;64.18;94708.53;4174473;28;20049;-52
2022/05/18 08:40:28;;;;;;;7.47;6.38;;;;;;;18.79;63.66;94716.69;4175973;28;20053;-52
2022/05/18 08:42:30;;;;;;;7.65;6.45;;;;;;;18.91;63.34;94707.06;4176208;28;20119;-53
2022/05/18 08:44:34;;;;;;;8.50;6.38;;;;;;;19.02;63.70;94713.53;4163268;28;20060;-53
2022/05/18 08:46:50;;;;;;;10.10;7.20;;;;;;;19.01;63.46;94714.56;4157933;28;20057;-55
2022/05/18 08:49:33;;;;;;;9.25;6.93;;;;;;;19.35;62.80;94704.59;4159041;28;20135;-57
2022/05/18 08:51:53;;;;;;;7.65;5.45;;;;;;;19.75;60.87;94709.69;4162349;28;20103;-54
2022/05/18 08:54:07;;;;;;;6.45;5.82;;;;;;;19.90;61.07;94698.75;4167964;28;20053;-51
2022/05/18 08:56:11;;;;;;;;;;;;;;;19.83;61.09;94702.25;4176388;28;20053;-55
2022/05/18 08:58:22;;;;;;;6.43;5.35;;;;;;;19.77;60.27;94704.97;4174552;28;19975;-51
2022/05/18 09:00:33;;;;;;;7.63;5.75;;;;;;;19.95;60.60;94697.03;4175665;28;20106;-56
2022/05/18 09:02:35;;;;;;;6.85;5.05;;;;;;;19.94;59.57;94697.25;4174650;28;20602;-56
2022/05/18 09:04:48;;;;;;;6.00;5.40;;;;;;;19.78;60.00;94695.97;4175395;28;20063;-52
2022/05/18 09:07:15;;;;;;;5.32;4.78;;;;;;;19.57;60.47;94689.13;4176206;28;20057;-52
2022/05/18 09:11:47;;;;;;;7.10;5.00;;;;;;;19.47;61.22;94686.94;4177720;28;20381;-57
2022/05/18 09:13:49;;;;;;;7.85;5.53;;;;;;;19.46;61.89;94682.66;4178740;28;20053;-55
2022/05/18 09:16:37;;;;;;;4.93;4.43;;;;;;;19.76;60.42;94690.03;4177531;28;20052;-53
2022/05/18 09:18:58;;;;;;;7.15;4.75;;;;;;;20.12;59.87;94676.03;4176522;28;20460;-53
2022/05/18 09:21:47;;;;;;;4.68;4.18;;;;;;;20.38;57.78;94674.97;4178920;28;20488;-55
2022/05/18 09:23:58;;;;;;;5.78;4.50;;;;;;;20.58;56.62;94668.66;4159469;28;20413;-53
2022/05/18 09:26:28;;;;;;;5.93;4.22;;;;;;;20.22;57.43;94683.53;4162243;28;20420;-54
2022/05/18 09:29:04;;;;;;;5.05;4.32;;;;;;;20.17;57.37;94665.56;4161796;28;20055;-55
2022/05/18 09:31:24;;;;;;;6.35;4.60;;;;;;;20.34;57.12;94659.66;4160620;28;20119;-53
2022/05/18 09:33:42;;;;;;;5.00;4.30;;;;;;;20.45;56.02;94665.06;4176043;28;20126;-55
2022/05/18 09:36:06;;;;;;;6.88;4.85;;;;;;;20.48;56.30;94658.50;4176900;28;20136;-54
2022/05/18 09:38:11;;;;;;;5.03;3.83;;;;;;;20.62;55.63;94661.84;4167899;28;20057;-54
2022/05/18 09:40:18;;;;;;;6.10;4.07;;;;;;;20.72;55.71;94659.47;4160508;28;20057;-55
2022/05/18 09:42:24;;;;;;;5.55;4.07;;;;;;;20.71;54.12;94665.84;4174534;28;20041;-56
2022/05/18 09:44:32;;;;;;;4.13;3.40;;;;;;;20.61;55.10;94657.56;4176856;28;20535;-56
2022/05/18 09:46:34;;;;;;;4.80;4.00;;;;;;;20.72;55.05;94654.16;4178293;28;20056;-57
2022/05/18 09:48:44;;;;;;;6.93;4.38;;;;;;;20.62;54.71;94659.19;4169444;28;20096;-58
2022/05/18 09:50:48;;;;;;;5.03;3.15;;;;;;;20.51;53.43;94667.88;4160373;28;20517;-56
2022/05/18 09:52:51;;;;;;;8.50;3.30;;;;;;;20.55;53.73;94658.44;4167371;28;20426;-54
2022/05/18 09:54:54;;;;;;;4.30;3.35;;;;;;;20.41;54.99;94647.09;4159719;28;20049;-55
2022/05/18 09:57:06;;;;;;;5.30;3.55;;;;;;;20.11;55.37;94671.78;4176376;28;20053;-56
2022/05/18 09:59:15;;;;;;;8.13;4.25;;;;;;;20.29;56.04;94656.88;4161739;28;20343;-59